sensor_id;sensor_type;location;lat;lon;timestamp;P1;durP1;ratioP1;P2;durP2;ratioP2
72109;SDS011;59983;52.010;5.420;2023-04-03T00:00:58;6.25;;;5.95;;
72109;SDS011;59983;52.010;5.420;2023-04-03T00:03:25;6.05;;;5.65;;
72109;SDS011;59983;52.010;5.420;2023-04-03T00:05:51;6.00;;;5.63;;
72109;SDS011;59983;52.010;5.420;2023-04-03T00:08:18;6.13;;;5.47;;
72109;SDS011;59983;52.010;5.420;2023-04-03T00:10:45;6.03;;;5.73;;
72109;SDS011;59983;52.010;5.420;2023-04-03T00:13:12;5.95;;;5.45;;
72109;SDS011;59983;52.010;5.420;2023-04-03T00:15:39;6.10;;;5.70;;
72109;SDS011;59983;52.010;5.420;2023-04-03T00:18:06;6.50;;;6.10;;
72109;SDS011;59983;52.010;5.420;2023-04-03T00:20:34;6.57;;;5.97;;
72109;SDS011;59983;52.010;5.420;2023-04-03T00:23:01;5.50;;;5.20;;
72109;SDS011;59983;52.010;5.420;2023-04-03T00:25:28;6.60;;;6.20;;
72109;SDS011;59983;52.010;5.420;2023-04-03T00:27:54;5.85;;;5.65;;
72109;SDS011;59983;52.010;5.420;2023-04-03T00:30:21;6.55;;;6.25;;
72109;SDS011;59983;52.010;5.420;2023-04-03T00:32:49;7.43;;;7.03;;
72109;SDS011;59983;52.010;5.420;2023-04-03T00:35:16;7.17;;;6.60;;
72109;SDS011;59983;52.010;5.420;2023-04-03T00:37:44;7.68;;;7.25;;
72109;SDS011;59983;52.010;5.420;2023-04-03T00:40:12;6.85;;;6.30;;
72109;SDS011;59983;52.010;5.420;2023-04-03T00:42:42;7.28;;;6.75;;
72109;SDS011;59983;52.010;5.420;2023-04-03T00:45:22;7.53;;;7.13;;
72109;SDS011;59983;52.010;5.420;2023-04-03T00:47:52;7.63;;;7.13;;
72109;SDS011;59983;52.010;5.420;2023-04-03T00:50:18;6.72;;;6.40;;
72109;SDS011;59983;52.010;5.420;2023-04-03T00:52:45;6.40;;;6.00;;
72109;SDS011;59983;52.010;5.420;2023-04-03T00:55:15;6.95;;;6.55;;
72109;SDS011;59983;52.010;5.420;2023-04-03T00:57:42;7.35;;;7.05;;
72109;SDS011;59983;52.010;5.420;2023-04-03T01:00:10;7.90;;;7.40;;
72109;SDS011;59983;52.010;5.420;2023-04-03T01:02:40;6.90;;;6.50;;
72109;SDS011;59983;52.010;5.420;2023-04-03T01:05:07;6.85;;;6.47;;
72109;SDS011;59983;52.010;5.420;2023-04-03T01:07:34;7.07;;;6.57;;
72109;SDS011;59983;52.010;5.420;2023-04-03T01:10:04;7.10;;;6.80;;
72109;SDS011;59983;52.010;5.420;2023-04-03T01:12:35;6.90;;;6.60;;
72109;SDS011;59983;52.010;5.420;2023-04-03T01:15:13;7.03;;;6.60;;
72109;SDS011;59983;52.010;5.420;2023-04-03T01:17:47;8.20;;;7.25;;
72109;SDS011;59983;52.010;5.420;2023-04-03T01:25:40;7.47;;;7.07;;
72109;SDS011;59983;52.010;5.420;2023-04-03T01:28:20;5.82;;;5.38;;
72109;SDS011;59983;52.010;5.420;2023-04-03T01:33:15;7.35;;;7.05;;
72109;SDS011;59983;52.010;5.420;2023-04-03T01:35:42;7.20;;;6.75;;
72109;SDS011;59983;52.010;5.420;2023-04-03T01:38:09;6.47;;;6.07;;
72109;SDS011;59983;52.010;5.420;2023-04-03T01:40:36;7.55;;;6.85;;
72109;SDS011;59983;52.010;5.420;2023-04-03T01:43:03;7.20;;;6.78;;
72109;SDS011;59983;52.010;5.420;2023-04-03T01:45:29;7.15;;;6.50;;
72109;SDS011;59983;52.010;5.420;2023-04-03T01:47:56;7.32;;;7.03;;
72109;SDS011;59983;52.010;5.420;2023-04-03T01:50:23;7.10;;;6.80;;
72109;SDS011;59983;52.010;5.420;2023-04-03T01:52:49;6.68;;;6.28;;
72109;SDS011;59983;52.010;5.420;2023-04-03T01:55:16;6.68;;;6.20;;
72109;SDS011;59983;52.010;5.420;2023-04-03T01:57:42;7.30;;;6.90;;
72109;SDS011;59983;52.010;5.420;2023-04-03T02:00:09;6.50;;;6.20;;
72109;SDS011;59983;52.010;5.420;2023-04-03T02:02:36;7.10;;;6.53;;
72109;SDS011;59983;52.010;5.420;2023-04-03T02:05:02;7.47;;;7.10;;
72109;SDS011;59983;52.010;5.420;2023-04-03T02:07:29;6.70;;;6.38;;
72109;SDS011;59983;52.010;5.420;2023-04-03T02:09:56;6.90;;;6.20;;
72109;SDS011;59983;52.010;5.420;2023-04-03T02:12:22;7.45;;;7.05;;
72109;SDS011;59983;52.010;5.420;2023-04-03T02:14:49;7.60;;;7.03;;
72109;SDS011;59983;52.010;5.420;2023-04-03T02:17:16;6.65;;;6.30;;
72109;SDS011;59983;52.010;5.420;2023-04-03T02:19:42;6.63;;;6.13;;
72109;SDS011;59983;52.010;5.420;2023-04-03T02:22:09;6.50;;;6.20;;
72109;SDS011;59983;52.010;5.420;2023-04-03T02:24:35;7.65;;;7.03;;
72109;SDS011;59983;52.010;5.420;2023-04-03T02:27:02;7.10;;;6.80;;
72109;SDS011;59983;52.010;5.420;2023-04-03T02:29:28;7.40;;;7.00;;
72109;SDS011;59983;52.010;5.420;2023-04-03T02:31:55;7.78;;;7.10;;
72109;SDS011;59983;52.010;5.420;2023-04-03T02:34:21;7.75;;;7.43;;
72109;SDS011;59983;52.010;5.420;2023-04-03T02:36:48;7.57;;;7.18;;
72109;SDS011;59983;52.010;5.420;2023-04-03T02:39:14;8.17;;;7.73;;
72109;SDS011;59983;52.010;5.420;2023-04-03T02:41:41;7.38;;;6.80;;
72109;SDS011;59983;52.010;5.420;2023-04-03T02:44:08;8.77;;;8.15;;
72109;SDS011;59983;52.010;5.420;2023-04-03T02:46:38;7.15;;;6.80;;
72109;SDS011;59983;52.010;5.420;2023-04-03T02:49:05;7.82;;;7.30;;
72109;SDS011;59983;52.010;5.420;2023-04-03T02:51:31;7.13;;;6.73;;
72109;SDS011;59983;52.010;5.420;2023-04-03T02:53:58;7.28;;;6.85;;
72109;SDS011;59983;52.010;5.420;2023-04-03T02:56:24;7.10;;;6.70;;
72109;SDS011;59983;52.010;5.420;2023-04-03T02:58:52;9.00;;;6.72;;
72109;SDS011;59983;52.010;5.420;2023-04-03T03:01:19;6.40;;;6.00;;
72109;SDS011;59983;52.010;5.420;2023-04-03T03:03:46;8.30;;;7.80;;
72109;SDS011;59983;52.010;5.420;2023-04-03T03:06:13;7.85;;;7.22;;
72109;SDS011;59983;52.010;5.420;2023-04-03T03:08:42;6.97;;;6.47;;
72109;SDS011;59983;52.010;5.420;2023-04-03T03:11:09;7.25;;;6.85;;
72109;SDS011;59983;52.010;5.420;2023-04-03T03:13:36;7.22;;;6.85;;
72109;SDS011;59983;52.010;5.420;2023-04-03T03:16:02;7.83;;;7.10;;
72109;SDS011;59983;52.010;5.420;2023-04-03T03:18:29;6.20;;;5.90;;
72109;SDS011;59983;52.010;5.420;2023-04-03T03:20:57;6.85;;;6.32;;
72109;SDS011;59983;52.010;5.420;2023-04-03T03:23:26;6.80;;;6.38;;
72109;SDS011;59983;52.010;5.420;2023-04-03T03:25:58;7.70;;;7.15;;
72109;SDS011;59983;52.010;5.420;2023-04-03T03:28:27;7.70;;;7.10;;
72109;SDS011;59983;52.010;5.420;2023-04-03T03:30:54;7.55;;;7.05;;
72109;SDS011;59983;52.010;5.420;2023-04-03T03:33:20;6.47;;;6.07;;
72109;SDS011;59983;52.010;5.420;2023-04-03T03:35:46;6.47;;;6.07;;
72109;SDS011;59983;52.010;5.420;2023-04-03T03:38:13;7.00;;;6.65;;
72109;SDS011;59983;52.010;5.420;2023-04-03T03:40:39;6.77;;;6.30;;
72109;SDS011;59983;52.010;5.420;2023-04-03T03:43:06;8.32;;;7.07;;
72109;SDS011;59983;52.010;5.420;2023-04-03T03:45:32;7.38;;;6.93;;
72109;SDS011;59983;52.010;5.420;2023-04-03T03:48:00;7.53;;;7.03;;
72109;SDS011;59983;52.010;5.420;2023-04-03T03:50:26;7.25;;;6.93;;
72109;SDS011;59983;52.010;5.420;2023-04-03T03:52:53;6.87;;;6.37;;
72109;SDS011;59983;52.010;5.420;2023-04-03T03:55:19;7.20;;;6.70;;
72109;SDS011;59983;52.010;5.420;2023-04-03T03:57:46;7.95;;;7.50;;
72109;SDS011;59983;52.010;5.420;2023-04-03T04:00:13;7.68;;;7.28;;
72109;SDS011;59983;52.010;5.420;2023-04-03T04:02:39;7.18;;;6.68;;
72109;SDS011;59983;52.010;5.420;2023-04-03T04:05:06;8.03;;;7.53;;
72109;SDS011;59983;52.010;5.420;2023-04-03T04:07:33;6.95;;;6.45;;
72109;SDS011;59983;52.010;5.420;2023-04-03T04:09:59;7.40;;;7.00;;
72109;SDS011;59983;52.010;5.420;2023-04-03T04:12:26;8.68;;;8.18;;
72109;SDS011;59983;52.010;5.420;2023-04-03T04:14:52;8.07;;;7.57;;
72109;SDS011;59983;52.010;5.420;2023-04-03T04:17:19;8.83;;;8.00;;
72109;SDS011;59983;52.010;5.420;2023-04-03T04:19:45;8.18;;;7.57;;
72109;SDS011;59983;52.010;5.420;2023-04-03T04:22:12;7.97;;;7.47;;
72109;SDS011;59983;52.010;5.420;2023-04-03T04:24:38;6.97;;;6.18;;
72109;SDS011;59983;52.010;5.420;2023-04-03T04:27:05;7.68;;;7.18;;
72109;SDS011;59983;52.010;5.420;2023-04-03T04:29:31;7.60;;;6.97;;
72109;SDS011;59983;52.010;5.420;2023-04-03T04:32:02;5.82;;;5.53;;
72109;SDS011;59983;52.010;5.420;2023-04-03T04:34:29;7.60;;;6.90;;
72109;SDS011;59983;52.010;5.420;2023-04-03T04:36:56;7.03;;;6.53;;
72109;SDS011;59983;52.010;5.420;2023-04-03T04:39:23;7.55;;;7.07;;
72109;SDS011;59983;52.010;5.420;2023-04-03T04:41:49;8.17;;;7.37;;
72109;SDS011;59983;52.010;5.420;2023-04-03T04:44:16;8.30;;;7.80;;
72109;SDS011;59983;52.010;5.420;2023-04-03T04:46:43;7.30;;;6.90;;
72109;SDS011;59983;52.010;5.420;2023-04-03T04:49:09;8.80;;;8.27;;
72109;SDS011;59983;52.010;5.420;2023-04-03T04:51:36;8.82;;;8.23;;
72109;SDS011;59983;52.010;5.420;2023-04-03T04:54:17;7.77;;;7.37;;
72109;SDS011;59983;52.010;5.420;2023-04-03T04:56:43;8.52;;;8.00;;
72109;SDS011;59983;52.010;5.420;2023-04-03T04:59:10;8.15;;;7.45;;
72109;SDS011;59983;52.010;5.420;2023-04-03T05:01:36;9.65;;;8.70;;
72109;SDS011;59983;52.010;5.420;2023-04-03T05:04:03;8.65;;;8.15;;
72109;SDS011;59983;52.010;5.420;2023-04-03T05:06:30;9.00;;;8.37;;
72109;SDS011;59983;52.010;5.420;2023-04-03T05:08:58;9.48;;;8.52;;
72109;SDS011;59983;52.010;5.420;2023-04-03T05:11:25;8.95;;;8.35;;
72109;SDS011;59983;52.010;5.420;2023-04-03T05:13:52;9.18;;;8.45;;
72109;SDS011;59983;52.010;5.420;2023-04-03T05:16:18;9.23;;;8.65;;
72109;SDS011;59983;52.010;5.420;2023-04-03T05:18:45;7.93;;;7.50;;
72109;SDS011;59983;52.010;5.420;2023-04-03T05:21:11;11.43;;;9.05;;
72109;SDS011;59983;52.010;5.420;2023-04-03T05:23:38;8.90;;;8.40;;
72109;SDS011;59983;52.010;5.420;2023-04-03T05:26:04;8.88;;;8.27;;
72109;SDS011;59983;52.010;5.420;2023-04-03T05:28:32;9.70;;;8.60;;
72109;SDS011;59983;52.010;5.420;2023-04-03T05:30:58;9.20;;;8.23;;
72109;SDS011;59983;52.010;5.420;2023-04-03T05:33:25;9.02;;;8.25;;
72109;SDS011;59983;52.010;5.420;2023-04-03T05:35:53;9.35;;;8.63;;
72109;SDS011;59983;52.010;5.420;2023-04-03T05:38:20;8.00;;;7.43;;
72109;SDS011;59983;52.010;5.420;2023-04-03T05:40:47;7.88;;;7.28;;
72109;SDS011;59983;52.010;5.420;2023-04-03T05:43:13;7.63;;;7.23;;
72109;SDS011;59983;52.010;5.420;2023-04-03T05:45:40;7.82;;;7.03;;
72109;SDS011;59983;52.010;5.420;2023-04-03T05:48:06;8.00;;;7.30;;
72109;SDS011;59983;52.010;5.420;2023-04-03T05:50:33;8.27;;;7.57;;
72109;SDS011;59983;52.010;5.420;2023-04-03T05:52:59;10.20;;;7.60;;
72109;SDS011;59983;52.010;5.420;2023-04-03T05:55:28;8.40;;;7.87;;
72109;SDS011;59983;52.010;5.420;2023-04-03T05:57:54;7.60;;;6.97;;
72109;SDS011;59983;52.010;5.420;2023-04-03T06:00:21;8.23;;;7.78;;
72109;SDS011;59983;52.010;5.420;2023-04-03T06:02:48;8.05;;;7.45;;
72109;SDS011;59983;52.010;5.420;2023-04-03T06:05:15;8.10;;;7.55;;
72109;SDS011;59983;52.010;5.420;2023-04-03T06:07:42;7.93;;;7.17;;
72109;SDS011;59983;52.010;5.420;2023-04-03T06:10:10;7.10;;;6.70;;
72109;SDS011;59983;52.010;5.420;2023-04-03T06:12:38;7.88;;;7.43;;
72109;SDS011;59983;52.010;5.420;2023-04-03T06:15:05;8.07;;;7.30;;
72109;SDS011;59983;52.010;5.420;2023-04-03T06:17:34;8.13;;;7.22;;
72109;SDS011;59983;52.010;5.420;2023-04-03T06:20:00;7.93;;;7.50;;
72109;SDS011;59983;52.010;5.420;2023-04-03T06:22:27;7.70;;;7.07;;
72109;SDS011;59983;52.010;5.420;2023-04-03T06:24:56;7.03;;;6.40;;
72109;SDS011;59983;52.010;5.420;2023-04-03T06:27:23;6.75;;;6.32;;
72109;SDS011;59983;52.010;5.420;2023-04-03T06:29:50;7.55;;;6.82;;
72109;SDS011;59983;52.010;5.420;2023-04-03T06:32:16;7.97;;;6.77;;
72109;SDS011;59983;52.010;5.420;2023-04-03T06:34:43;8.15;;;7.38;;
72109;SDS011;59983;52.010;5.420;2023-04-03T06:37:20;7.03;;;6.63;;
72109;SDS011;59983;52.010;5.420;2023-04-03T06:39:48;7.72;;;7.32;;
72109;SDS011;59983;52.010;5.420;2023-04-03T06:42:15;8.25;;;7.50;;
72109;SDS011;59983;52.010;5.420;2023-04-03T06:44:42;8.10;;;7.43;;
72109;SDS011;59983;52.010;5.420;2023-04-03T06:47:12;9.30;;;8.05;;
72109;SDS011;59983;52.010;5.420;2023-04-03T06:49:40;7.68;;;7.07;;
72109;SDS011;59983;52.010;5.420;2023-04-03T06:52:07;6.88;;;6.47;;
72109;SDS011;59983;52.010;5.420;2023-04-03T06:54:34;7.95;;;7.40;;
72109;SDS011;59983;52.010;5.420;2023-04-03T06:57:01;7.90;;;7.20;;
72109;SDS011;59983;52.010;5.420;2023-04-03T06:59:28;12.10;;;6.78;;
72109;SDS011;59983;52.010;5.420;2023-04-03T07:01:54;7.90;;;7.25;;
72109;SDS011;59983;52.010;5.420;2023-04-03T07:04:21;7.82;;;7.43;;
72109;SDS011;59983;52.010;5.420;2023-04-03T07:06:47;7.97;;;7.35;;
72109;SDS011;59983;52.010;5.420;2023-04-03T07:09:14;6.80;;;6.47;;
72109;SDS011;59983;52.010;5.420;2023-04-03T07:11:41;7.80;;;7.05;;
72109;SDS011;59983;52.010;5.420;2023-04-03T07:14:07;8.15;;;7.45;;
72109;SDS011;59983;52.010;5.420;2023-04-03T07:16:34;7.68;;;7.20;;
72109;SDS011;59983;52.010;5.420;2023-04-03T07:19:02;7.75;;;7.10;;
72109;SDS011;59983;52.010;5.420;2023-04-03T07:21:29;7.00;;;6.60;;
72109;SDS011;59983;52.010;5.420;2023-04-03T07:23:55;6.95;;;6.35;;
72109;SDS011;59983;52.010;5.420;2023-04-03T07:26:22;6.60;;;6.00;;
72109;SDS011;59983;52.010;5.420;2023-04-03T07:28:49;6.20;;;5.70;;
72109;SDS011;59983;52.010;5.420;2023-04-03T07:31:16;7.05;;;6.30;;
72109;SDS011;59983;52.010;5.420;2023-04-03T07:33:44;6.70;;;6.20;;
72109;SDS011;59983;52.010;5.420;2023-04-03T07:36:14;5.95;;;5.45;;
72109;SDS011;59983;52.010;5.420;2023-04-03T07:38:43;6.05;;;5.68;;
72109;SDS011;59983;52.010;5.420;2023-04-03T07:41:12;7.25;;;6.13;;
72109;SDS011;59983;52.010;5.420;2023-04-03T07:43:41;7.03;;;6.45;;
72109;SDS011;59983;52.010;5.420;2023-04-03T07:46:08;6.40;;;5.80;;
72109;SDS011;59983;52.010;5.420;2023-04-03T07:48:35;5.63;;;5.32;;
72109;SDS011;59983;52.010;5.420;2023-04-03T07:51:02;6.03;;;5.63;;
72109;SDS011;59983;52.010;5.420;2023-04-03T07:53:30;6.07;;;5.57;;
72109;SDS011;59983;52.010;5.420;2023-04-03T07:55:58;5.60;;;5.07;;
72109;SDS011;59983;52.010;5.420;2023-04-03T07:58:25;4.60;;;4.30;;
72109;SDS011;59983;52.010;5.420;2023-04-03T08:00:52;5.47;;;5.18;;
72109;SDS011;59983;52.010;5.420;2023-04-03T08:03:19;5.35;;;5.03;;
72109;SDS011;59983;52.010;5.420;2023-04-03T08:05:47;6.47;;;5.90;;
72109;SDS011;59983;52.010;5.420;2023-04-03T08:08:16;5.60;;;5.10;;
72109;SDS011;59983;52.010;5.420;2023-04-03T08:10:53;5.50;;;4.97;;
72109;SDS011;59983;52.010;5.420;2023-04-03T08:13:20;5.18;;;4.78;;
72109;SDS011;59983;52.010;5.420;2023-04-03T08:15:48;5.38;;;4.93;;
72109;SDS011;59983;52.010;5.420;2023-04-03T08:18:14;5.60;;;5.10;;
72109;SDS011;59983;52.010;5.420;2023-04-03T08:20:42;5.28;;;4.93;;
72109;SDS011;59983;52.010;5.420;2023-04-03T08:23:09;4.20;;;3.90;;
72109;SDS011;59983;52.010;5.420;2023-04-03T08:25:39;4.72;;;4.43;;
72109;SDS011;59983;52.010;5.420;2023-04-03T08:28:07;4.60;;;4.32;;
72109;SDS011;59983;52.010;5.420;2023-04-03T08:30:35;4.13;;;3.78;;
72109;SDS011;59983;52.010;5.420;2023-04-03T08:33:02;4.45;;;4.13;;
72109;SDS011;59983;52.010;5.420;2023-04-03T08:35:29;4.60;;;4.03;;
72109;SDS011;59983;52.010;5.420;2023-04-03T08:37:56;5.72;;;5.13;;
72109;SDS011;59983;52.010;5.420;2023-04-03T08:40:22;4.93;;;4.53;;
72109;SDS011;59983;52.010;5.420;2023-04-03T08:48:24;4.67;;;4.17;;
72109;SDS011;59983;52.010;5.420;2023-04-03T08:50:57;4.53;;;4.22;;
72109;SDS011;59983;52.010;5.420;2023-04-03T08:53:29;4.15;;;3.67;;
72109;SDS011;59983;52.010;5.420;2023-04-03T08:56:02;3.95;;;3.70;;
72109;SDS011;59983;52.010;5.420;2023-04-03T08:58:56;4.55;;;4.30;;
72109;SDS011;59983;52.010;5.420;2023-04-03T09:01:34;4.33;;;4.03;;
72109;SDS011;59983;52.010;5.420;2023-04-03T09:04:08;4.75;;;4.38;;
72109;SDS011;59983;52.010;5.420;2023-04-03T09:06:38;3.28;;;3.08;;
72109;SDS011;59983;52.010;5.420;2023-04-03T09:12:23;3.83;;;3.47;;
72109;SDS011;59983;52.010;5.420;2023-04-03T09:15:10;3.77;;;3.57;;
72109;SDS011;59983;52.010;5.420;2023-04-03T09:18:04;3.80;;;3.50;;
72109;SDS011;59983;52.010;5.420;2023-04-03T09:23:38;3.80;;;3.60;;
72109;SDS011;59983;52.010;5.420;2023-04-03T09:26:16;4.32;;;4.03;;
72109;SDS011;59983;52.010;5.420;2023-04-03T09:28:47;3.30;;;3.10;;
72109;SDS011;59983;52.010;5.420;2023-04-03T09:31:23;3.72;;;3.50;;
72109;SDS011;59983;52.010;5.420;2023-04-03T09:33:53;3.38;;;3.28;;
72109;SDS011;59983;52.010;5.420;2023-04-03T09:39:16;3.13;;;3.03;;
72109;SDS011;59983;52.010;5.420;2023-04-03T09:42:04;3.43;;;3.17;;
72109;SDS011;59983;52.010;5.420;2023-04-03T09:44:34;2.95;;;2.75;;
72109;SDS011;59983;52.010;5.420;2023-04-03T09:47:45;2.83;;;2.70;;
72109;SDS011;59983;52.010;5.420;2023-04-03T09:52:40;3.17;;;2.92;;
72109;SDS011;59983;52.010;5.420;2023-04-03T09:55:16;3.13;;;3.00;;
72109;SDS011;59983;52.010;5.420;2023-04-03T09:57:45;2.97;;;2.88;;
72109;SDS011;59983;52.010;5.420;2023-04-03T10:03:03;2.85;;;2.75;;
72109;SDS011;59983;52.010;5.420;2023-04-03T10:05:37;2.60;;;2.40;;
72109;SDS011;59983;52.010;5.420;2023-04-03T10:10:42;2.53;;;2.42;;
72109;SDS011;59983;52.010;5.420;2023-04-03T10:13:11;4.18;;;3.97;;
72109;SDS011;59983;52.010;5.420;2023-04-03T10:15:51;2.58;;;2.47;;
72109;SDS011;59983;52.010;5.420;2023-04-03T10:21:37;3.93;;;3.20;;
72109;SDS011;59983;52.010;5.420;2023-04-03T10:24:25;3.47;;;3.33;;
72109;SDS011;59983;52.010;5.420;2023-04-03T10:33:05;3.30;;;3.20;;
72109;SDS011;59983;52.010;5.420;2023-04-03T10:36:18;3.60;;;3.50;;
72109;SDS011;59983;52.010;5.420;2023-04-03T10:53:08;4.03;;;3.85;;
72109;SDS011;59983;52.010;5.420;2023-04-03T11:01:45;3.90;;;3.60;;
72109;SDS011;59983;52.010;5.420;2023-04-03T11:04:16;3.17;;;2.90;;
72109;SDS011;59983;52.010;5.420;2023-04-03T11:06:47;4.40;;;4.03;;
72109;SDS011;59983;52.010;5.420;2023-04-03T11:11:48;3.83;;;3.63;;
72109;SDS011;59983;52.010;5.420;2023-04-03T11:14:22;3.55;;;3.45;;
72109;SDS011;59983;52.010;5.420;2023-04-03T11:16:53;3.57;;;3.47;;
72109;SDS011;59983;52.010;5.420;2023-04-03T11:19:47;4.32;;;4.03;;
72109;SDS011;59983;52.010;5.420;2023-04-03T11:27:47;4.15;;;3.85;;
72109;SDS011;59983;52.010;5.420;2023-04-03T11:30:19;3.83;;;3.53;;
72109;SDS011;59983;52.010;5.420;2023-04-03T11:35:20;3.60;;;3.40;;
72109;SDS011;59983;52.010;5.420;2023-04-03T11:37:49;3.60;;;3.40;;
72109;SDS011;59983;52.010;5.420;2023-04-03T11:40:25;3.95;;;3.67;;
72109;SDS011;59983;52.010;5.420;2023-04-03T11:45:27;3.70;;;3.60;;
72109;SDS011;59983;52.010;5.420;2023-04-03T11:48:03;3.95;;;3.75;;
72109;SDS011;59983;52.010;5.420;2023-04-03T11:50:48;4.28;;;4.03;;
72109;SDS011;59983;52.010;5.420;2023-04-03T11:55:44;3.80;;;3.53;;
72109;SDS011;59983;52.010;5.420;2023-04-03T11:58:30;2.97;;;2.67;;
72109;SDS011;59983;52.010;5.420;2023-04-03T12:06:47;2.85;;;2.65;;
72109;SDS011;59983;52.010;5.420;2023-04-03T12:11:29;3.03;;;2.83;;
72109;SDS011;59983;52.010;5.420;2023-04-03T12:29:46;2.80;;;2.60;;
72109;SDS011;59983;52.010;5.420;2023-04-03T12:41:18;3.13;;;2.72;;
72109;SDS011;59983;52.010;5.420;2023-04-03T12:46:53;2.47;;;2.15;;
72109;SDS011;59983;52.010;5.420;2023-04-03T12:49:24;2.00;;;1.90;;
72109;SDS011;59983;52.010;5.420;2023-04-03T12:51:55;2.35;;;1.95;;
72109;SDS011;59983;52.010;5.420;2023-04-03T12:54:23;2.17;;;2.08;;
72109;SDS011;59983;52.010;5.420;2023-04-03T12:57:12;2.35;;;2.25;;
72109;SDS011;59983;52.010;5.420;2023-04-03T12:59:41;2.42;;;2.33;;
72109;SDS011;59983;52.010;5.420;2023-04-03T13:04:58;1.92;;;1.83;;
72109;SDS011;59983;52.010;5.420;2023-04-03T13:07:34;3.15;;;1.90;;
72109;SDS011;59983;52.010;5.420;2023-04-03T13:12:35;2.03;;;1.83;;
72109;SDS011;59983;52.010;5.420;2023-04-03T13:15:15;1.97;;;1.87;;
72109;SDS011;59983;52.010;5.420;2023-04-03T13:17:44;2.30;;;1.73;;
72109;SDS011;59983;52.010;5.420;2023-04-03T13:20:33;1.67;;;1.58;;
72109;SDS011;59983;52.010;5.420;2023-04-03T13:23:02;2.28;;;2.08;;
72109;SDS011;59983;52.010;5.420;2023-04-03T13:25:35;1.55;;;1.45;;
72109;SDS011;59983;52.010;5.420;2023-04-03T13:28:06;2.07;;;1.90;;
72109;SDS011;59983;52.010;5.420;2023-04-03T13:30:40;1.90;;;1.80;;
72109;SDS011;59983;52.010;5.420;2023-04-03T13:33:21;1.70;;;1.50;;
72109;SDS011;59983;52.010;5.420;2023-04-03T13:35:57;2.08;;;1.60;;
72109;SDS011;59983;52.010;5.420;2023-04-03T13:38:29;1.77;;;1.67;;
72109;SDS011;59983;52.010;5.420;2023-04-03T13:41:01;1.60;;;1.30;;
72109;SDS011;59983;52.010;5.420;2023-04-03T13:43:47;2.63;;;1.20;;
72109;SDS011;59983;52.010;5.420;2023-04-03T13:48:44;1.35;;;1.25;;
72109;SDS011;59983;52.010;5.420;2023-04-03T13:53:43;3.63;;;1.20;;
72109;SDS011;59983;52.010;5.420;2023-04-03T13:56:37;2.33;;;1.13;;
72109;SDS011;59983;52.010;5.420;2023-04-03T14:07:14;2.30;;;0.80;;
72109;SDS011;59983;52.010;5.420;2023-04-03T14:09:42;7.32;;;0.95;;
72109;SDS011;59983;52.010;5.420;2023-04-03T14:12:18;2.20;;;0.70;;
72109;SDS011;59983;52.010;5.420;2023-04-03T14:14:58;2.95;;;1.00;;
72109;SDS011;59983;52.010;5.420;2023-04-03T14:17:28;2.53;;;0.68;;
72109;SDS011;59983;52.010;5.420;2023-04-03T14:19:55;1.53;;;0.70;;
72109;SDS011;59983;52.010;5.420;2023-04-03T14:22:27;1.15;;;0.82;;
72109;SDS011;59983;52.010;5.420;2023-04-03T14:24:56;0.88;;;0.85;;
72109;SDS011;59983;52.010;5.420;2023-04-03T14:30:00;2.75;;;1.05;;
72109;SDS011;59983;52.010;5.420;2023-04-03T14:32:29;1.20;;;1.00;;
72109;SDS011;59983;52.010;5.420;2023-04-03T14:34:56;1.67;;;1.10;;
72109;SDS011;59983;52.010;5.420;2023-04-03T14:37:25;1.42;;;1.05;;
72109;SDS011;59983;52.010;5.420;2023-04-03T14:39:54;1.40;;;0.77;;
72109;SDS011;59983;52.010;5.420;2023-04-03T14:42:23;2.47;;;1.10;;
72109;SDS011;59983;52.010;5.420;2023-04-03T14:44:59;1.70;;;1.20;;
72109;SDS011;59983;52.010;5.420;2023-04-03T14:47:28;1.10;;;0.95;;
72109;SDS011;59983;52.010;5.420;2023-04-03T14:49:59;2.22;;;1.30;;
72109;SDS011;59983;52.010;5.420;2023-04-03T14:52:28;2.38;;;1.13;;
72109;SDS011;59983;52.010;5.420;2023-04-03T14:54:57;1.75;;;1.10;;
72109;SDS011;59983;52.010;5.420;2023-04-03T14:57:25;1.73;;;1.33;;
72109;SDS011;59983;52.010;5.420;2023-04-03T14:59:54;2.50;;;1.35;;
72109;SDS011;59983;52.010;5.420;2023-04-03T15:02:28;2.10;;;1.20;;
72109;SDS011;59983;52.010;5.420;2023-04-03T15:04:57;3.08;;;1.23;;
72109;SDS011;59983;52.010;5.420;2023-04-03T15:07:26;1.55;;;1.45;;
72109;SDS011;59983;52.010;5.420;2023-04-03T15:09:54;2.77;;;1.40;;
72109;SDS011;59983;52.010;5.420;2023-04-03T15:12:24;2.25;;;1.35;;
72109;SDS011;59983;52.010;5.420;2023-04-03T15:14:51;4.80;;;1.60;;
72109;SDS011;59983;52.010;5.420;2023-04-03T15:17:28;2.65;;;1.33;;
72109;SDS011;59983;52.010;5.420;2023-04-03T15:19:54;2.60;;;1.60;;
72109;SDS011;59983;52.010;5.420;2023-04-03T15:22:21;2.20;;;2.00;;
72109;SDS011;59983;52.010;5.420;2023-04-03T15:24:47;2.65;;;2.10;;
72109;SDS011;59983;52.010;5.420;2023-04-03T15:27:14;2.05;;;1.95;;
72109;SDS011;59983;52.010;5.420;2023-04-03T15:29:41;2.58;;;2.38;;
72109;SDS011;59983;52.010;5.420;2023-04-03T15:32:09;2.97;;;1.95;;
72109;SDS011;59983;52.010;5.420;2023-04-03T15:34:36;2.40;;;2.13;;
72109;SDS011;59983;52.010;5.420;2023-04-03T15:37:03;2.28;;;2.17;;
72109;SDS011;59983;52.010;5.420;2023-04-03T15:39:30;2.88;;;2.22;;
72109;SDS011;59983;52.010;5.420;2023-04-03T15:41:57;2.38;;;1.85;;
72109;SDS011;59983;52.010;5.420;2023-04-03T15:44:32;6.72;;;1.90;;
72109;SDS011;59983;52.010;5.420;2023-04-03T15:47:00;4.47;;;1.73;;
72109;SDS011;59983;52.010;5.420;2023-04-03T15:49:27;3.90;;;1.85;;
72109;SDS011;59983;52.010;5.420;2023-04-03T15:51:54;4.70;;;1.50;;
72109;SDS011;59983;52.010;5.420;2023-04-03T15:54:20;2.13;;;1.30;;
72109;SDS011;59983;52.010;5.420;2023-04-03T15:56:47;2.30;;;1.60;;
72109;SDS011;59983;52.010;5.420;2023-04-03T15:59:13;2.43;;;1.27;;
72109;SDS011;59983;52.010;5.420;2023-04-03T16:01:40;2.42;;;1.23;;
72109;SDS011;59983;52.010;5.420;2023-04-03T16:04:07;2.00;;;1.13;;
72109;SDS011;59983;52.010;5.420;2023-04-03T16:06:35;1.83;;;1.27;;
72109;SDS011;59983;52.010;5.420;2023-04-03T16:09:03;1.98;;;1.23;;
72109;SDS011;59983;52.010;5.420;2023-04-03T16:11:30;3.37;;;1.63;;
72109;SDS011;59983;52.010;5.420;2023-04-03T16:13:57;4.47;;;3.83;;
72109;SDS011;59983;52.010;5.420;2023-04-03T16:16:24;3.50;;;1.70;;
72109;SDS011;59983;52.010;5.420;2023-04-03T16:18:52;2.25;;;1.30;;
72109;SDS011;59983;52.010;5.420;2023-04-03T16:21:20;1.63;;;1.10;;
72109;SDS011;59983;52.010;5.420;2023-04-03T16:23:47;2.60;;;1.20;;
72109;SDS011;59983;52.010;5.420;2023-04-03T16:26:14;2.95;;;1.70;;
72109;SDS011;59983;52.010;5.420;2023-04-03T16:28:41;2.10;;;1.50;;
72109;SDS011;59983;52.010;5.420;2023-04-03T16:31:07;2.00;;;1.60;;
72109;SDS011;59983;52.010;5.420;2023-04-03T16:33:35;2.53;;;1.52;;
72109;SDS011;59983;52.010;5.420;2023-04-03T16:36:03;5.27;;;2.00;;
72109;SDS011;59983;52.010;5.420;2023-04-03T16:38:30;3.03;;;2.38;;
72109;SDS011;59983;52.010;5.420;2023-04-03T16:40:57;1.80;;;1.70;;
72109;SDS011;59983;52.010;5.420;2023-04-03T16:43:26;3.33;;;1.80;;
72109;SDS011;59983;52.010;5.420;2023-04-03T16:45:53;2.95;;;1.90;;
72109;SDS011;59983;52.010;5.420;2023-04-03T16:48:19;3.00;;;1.67;;
72109;SDS011;59983;52.010;5.420;2023-04-03T16:50:46;2.40;;;1.90;;
72109;SDS011;59983;52.010;5.420;2023-04-03T16:53:15;3.63;;;3.05;;
72109;SDS011;59983;52.010;5.420;2023-04-03T16:55:42;2.40;;;1.90;;
72109;SDS011;59983;52.010;5.420;2023-04-03T16:58:08;3.78;;;1.98;;
72109;SDS011;59983;52.010;5.420;2023-04-03T17:00:36;1.93;;;1.70;;
72109;SDS011;59983;52.010;5.420;2023-04-03T17:03:03;3.58;;;1.95;;
72109;SDS011;59983;52.010;5.420;2023-04-03T17:05:30;2.60;;;2.40;;
72109;SDS011;59983;52.010;5.420;2023-04-03T17:07:58;2.47;;;2.25;;
72109;SDS011;59983;52.010;5.420;2023-04-03T17:10:24;2.83;;;2.50;;
72109;SDS011;59983;52.010;5.420;2023-04-03T17:12:51;2.73;;;2.53;;